Time;durP1;ratioP1;P1;durP2;ratioP2;P2;SDS_P1;SDS_P2;PMS_P1;PMS_P2;Temp;Humidity;BMP_temperature;BMP_pressure;BME280_temperature;BME280_humidity;BME280_pressure;Samples;Min_cycle;Max_cycle;Signal;HPM_P1;HPM_P2
2021/06/17 00:00:13;;;;;;;7.95;5.65;;;;;;;17.47;100.00;96142.13;5022008;28;20066;-58
2021/06/17 00:02:43;;;;;;;7.20;5.47;;;;;;;17.50;100.00;96147.06;5026813;28;20061;-55
2021/06/17 00:05:14;;;;;;;7.25;5.88;;;;;;;17.54;100.00;96142.16;5020757;28;20513;-55
2021/06/17 00:07:43;;;;;;;9.48;5.55;;;;;;;17.48;100.00;96145.59;5024127;28;20061;-58
2021/06/17 00:10:15;;;;;;;5.90;5.30;;;;;;;17.39;100.00;96142.28;5022278;28;20108;-58
2021/06/17 00:12:43;;;;;;;8.30;5.60;;;;;;;17.25;100.00;96146.69;5027335;28;20073;-57
2021/06/17 00:15:13;;;;;;;6.03;5.00;;;;;;;17.30;100.00;96152.25;5023254;28;20604;-59
2021/06/17 00:17:44;;;;;;;6.05;4.78;;;;;;;17.27;100.00;96144.69;5024922;28;20065;-57
2021/06/17 00:20:14;;;;;;;8.40;6.05;;;;;;;17.21;100.00;96153.44;5016813;28;20060;-59
2021/06/17 00:22:43;;;;;;;6.57;5.50;;;;;;;17.09;100.00;96144.31;5026273;28;20543;-53
2021/06/17 00:25:13;;;;;;;7.10;5.25;;;;;;;16.97;100.00;96144.03;5019521;28;20097;-58
2021/06/17 00:27:43;;;;;;;6.90;5.57;;;;;;;16.88;100.00;96147.00;5024271;28;20529;-58
2021/06/17 00:30:12;;;;;;;8.45;5.78;;;;;;;16.82;100.00;96140.59;5023074;28;20068;-57
2021/06/17 00:32:41;;;;;;;8.52;5.45;;;;;;;16.96;100.00;96142.34;5023882;28;20481;-59
2021/06/17 00:35:13;;;;;;;10.23;5.90;;;;;;;17.02;100.00;96143.44;5003727;28;20062;-60
2021/06/17 00:37:42;;;;;;;7.47;5.35;;;;;;;16.95;100.00;96148.72;5023332;28;20061;-58
2021/06/17 00:40:14;;;;;;;6.32;5.20;;;;;;;16.96;100.00;96139.69;5022025;28;20565;-57
2021/06/17 00:42:45;;;;;;;7.38;5.53;;;;;;;16.81;100.00;96141.63;5022968;28;20070;-58
2021/06/17 00:45:21;;;;;;;11.52;5.85;;;;;;;16.83;100.00;96140.44;5019002;28;20077;-52
2021/06/17 00:47:50;;;;;;;9.27;6.65;;;;;;;16.65;100.00;96149.84;5020994;28;20068;-58
2021/06/17 00:50:20;;;;;;;10.55;6.57;;;;;;;16.62;100.00;96148.41;5021072;28;20061;-59
2021/06/17 00:52:49;;;;;;;13.95;6.90;;;;;;;16.66;100.00;96132.88;5024672;28;20065;-58
2021/06/17 00:55:18;;;;;;;7.57;6.10;;;;;;;16.61;100.00;96141.41;5021138;28;20088;-60
2021/06/17 00:57:46;;;;;;;10.55;6.50;;;;;;;16.64;100.00;96141.03;5024710;28;20077;-57
2021/06/17 01:00:16;;;;;;;7.97;6.55;;;;;;;16.59;100.00;96141.59;5021954;28;20524;-58
2021/06/17 01:02:46;;;;;;;8.35;6.43;;;;;;;16.57;100.00;96142.81;5022404;28;20530;-59
2021/06/17 01:05:16;;;;;;;11.32;5.90;;;;;;;16.36;100.00;96141.78;5026186;28;20061;-58
2021/06/17 01:07:57;;;;;;;10.88;6.45;;;;;;;16.35;100.00;96134.00;5021433;28;20061;-58
2021/06/17 01:10:31;;;;;;;8.82;6.80;;;;;;;16.28;100.00;96128.59;5018066;28;20080;-60
2021/06/17 01:13:08;;;;;;;9.15;6.68;;;;;;;16.39;100.00;96124.63;5020983;28;20115;-58
2021/06/17 01:16:06;;;;;;;15.88;6.65;;;;;;;16.28;100.00;96125.94;5024791;28;20494;-59
2021/06/17 01:18:37;;;;;;;9.13;6.30;;;;;;;16.33;100.00;96123.53;5015764;28;20293;-59
2021/06/17 01:21:11;;;;;;;10.93;6.53;;;;;;;16.37;100.00;96115.97;5022249;28;20053;-59
2021/06/17 01:24:06;;;;;;;9.25;6.72;;;;;;;16.26;100.00;96117.31;5017795;28;20068;-57
2021/06/17 01:27:00;;;;;;;10.90;6.95;;;;;;;16.13;100.00;96117.16;5020414;28;20698;-59
2021/06/17 01:29:30;;;;;;;11.63;6.72;;;;;;;15.99;100.00;96118.84;5025559;28;20509;-57
2021/06/17 01:31:59;;;;;;;8.75;6.85;;;;;;;16.03;100.00;96120.09;5022163;28;20062;-58
2021/06/17 01:34:29;;;;;;;10.77;7.40;;;;;;;15.95;100.00;96122.06;5023377;28;24040;-58
2021/06/17 01:37:00;;;;;;;11.85;6.78;;;;;;;16.03;100.00;96114.78;5022063;28;20152;-57
2021/06/17 01:39:29;;;;;;;9.80;7.25;;;;;;;15.96;100.00;96115.72;5020877;28;20065;-54
2021/06/17 01:41:59;;;;;;;13.45;7.15;;;;;;;15.97;100.00;96114.75;5005170;28;20092;-57
2021/06/17 01:44:30;;;;;;;9.25;7.47;;;;;;;15.71;100.00;96120.53;5019180;28;20062;-55
2021/06/17 01:46:59;;;;;;;10.60;7.03;;;;;;;15.73;100.00;96113.22;5018389;28;20045;-59
2021/06/17 01:49:28;;;;;;;10.65;6.88;;;;;;;15.92;100.00;96109.97;5016952;28;20077;-57
2021/06/17 01:51:57;;;;;;;14.88;7.57;;;;;;;16.00;100.00;96111.69;5021097;28;20540;-54
2021/06/17 01:54:26;;;;;;;10.43;7.40;;;;;;;15.94;100.00;96105.28;5023261;28;20069;-56
2021/06/17 01:56:56;;;;;;;12.07;7.15;;;;;;;15.87;100.00;96105.22;5020096;28;20072;-60
2021/06/17 01:59:27;;;;;;;12.60;7.20;;;;;;;15.83;100.00;96111.09;5017681;28;20069;-57
2021/06/17 02:01:58;;;;;;;9.67;7.50;;;;;;;15.79;100.00;96107.13;5021973;28;20070;-58
2021/06/17 02:04:29;;;;;;;8.15;7.03;;;;;;;15.65;100.00;96106.94;5022027;28;20495;-58
2021/06/17 02:06:57;;;;;;;;;;;;;;;15.62;100.00;96106.47;5008335;28;20081;-58
2021/06/17 02:09:27;;;;;;;8.40;6.80;;;;;;;15.65;100.00;96103.47;5004927;28;19972;-57
2021/06/17 02:11:56;;;;;;;13.63;7.57;;;;;;;15.45;100.00;96095.25;5026083;28;20061;-56
2021/06/17 02:14:26;;;;;;;9.85;7.35;;;;;;;15.49;100.00;96103.69;5017698;28;20075;-57
2021/06/17 02:16:58;;;;;;;9.15;7.45;;;;;;;15.43;100.00;96097.25;5020591;28;20410;-58
2021/06/17 02:19:28;;;;;;;16.30;7.80;;;;;;;15.56;100.00;96092.13;5021464;28;20465;-56
2021/06/17 02:21:59;;;;;;;9.57;7.65;;;;;;;15.58;100.00;96094.56;5023462;28;20069;-58
2021/06/17 02:24:29;;;;;;;9.75;7.43;;;;;;;16.18;100.00;96087.34;5020934;28;20543;-58
2021/06/17 02:27:01;;;;;;;10.93;7.22;;;;;;;16.75;100.00;96084.63;5020845;28;20061;-57
2021/06/17 02:29:31;;;;;;;13.32;7.50;;;;;;;16.65;100.00;96089.41;5021829;28;20076;-57
2021/06/17 02:32:03;;;;;;;11.77;7.53;;;;;;;15.82;100.00;96096.13;5019793;28;20144;-58
2021/06/17 02:34:32;;;;;;;11.55;7.32;;;;;;;15.51;100.00;96091.00;5021629;28;20071;-56
2021/06/17 02:37:00;;;;;;;8.82;6.88;;;;;;;15.39;100.00;96091.47;5024408;28;20088;-55
2021/06/17 02:39:29;;;;;;;9.32;7.15;;;;;;;15.28;100.00;96088.44;5021023;28;20080;-56
2021/06/17 02:42:00;;;;;;;9.57;6.45;;;;;;;15.20;100.00;96084.03;5021864;28;20049;-56
2021/06/17 02:44:29;;;;;;;9.48;7.22;;;;;;;15.30;100.00;96091.75;5023190;28;20061;-57
2021/06/17 02:46:58;;;;;;;11.93;7.45;;;;;;;14.91;100.00;96092.81;5021344;28;20061;-58
2021/06/17 02:49:27;;;;;;;13.65;6.20;;;;;;;14.48;100.00;96095.13;5023116;28;20448;-58
2021/06/17 02:51:56;;;;;;;8.65;5.72;;;;;;;14.63;100.00;96095.22;5021576;28;20521;-59
2021/06/17 02:54:24;;;;;;;9.70;6.20;;;;;;;14.82;100.00;96085.94;5023178;28;20069;-58
2021/06/17 02:57:00;;;;;;;10.38;6.82;;;;;;;14.85;100.00;96081.09;5015702;28;20065;-57
2021/06/17 02:59:45;;;;;;;10.05;6.93;;;;;;;14.89;100.00;96090.31;5021758;28;20073;-56
2021/06/17 03:02:16;;;;;;;8.70;6.75;;;;;;;14.70;100.00;96086.38;5017773;28;20053;-56
2021/06/17 03:04:48;;;;;;;10.23;6.68;;;;;;;14.73;100.00;96090.50;5023315;28;20057;-55
2021/06/17 03:07:20;;;;;;;11.70;6.68;;;;;;;14.63;100.00;96082.78;5021272;28;20557;-55
2021/06/17 03:09:53;;;;;;;10.55;7.47;;;;;;;14.63;100.00;96076.66;5025110;28;20069;-57
2021/06/17 03:12:24;;;;;;;21.33;8.13;;;;;;;14.57;100.00;96069.41;5013884;28;20060;-56
2021/06/17 03:14:55;;;;;;;15.93;7.43;;;;;;;14.60;100.00;96067.22;5023542;28;20064;-56
2021/06/17 03:17:24;;;;;;;22.58;7.65;;;;;;;14.83;100.00;96072.50;5020382;28;20049;-56
2021/06/17 03:19:56;;;;;;;15.77;7.53;;;;;;;14.96;100.00;96070.00;5020883;28;20339;-59
2021/06/17 03:22:25;;;;;;;13.82;7.10;;;;;;;14.95;100.00;96073.69;5021199;28;20061;-58
2021/06/17 03:24:57;;;;;;;10.60;7.25;;;;;;;14.99;100.00;96068.84;5024863;28;20126;-57
2021/06/17 03:27:26;;;;;;;9.10;7.45;;;;;;;15.05;100.00;96068.13;5019365;28;20068;-58
2021/06/17 03:29:55;;;;;;;9.77;7.63;;;;;;;15.06;100.00;96064.44;5022571;28;20061;-59
2021/06/17 03:32:27;;;;;;;11.68;7.10;;;;;;;15.00;100.00;96077.63;5016361;28;20068;-54
2021/06/17 03:34:57;;;;;;;9.40;7.07;;;;;;;15.00;100.00;96078.44;5021173;28;20065;-57
2021/06/17 03:37:28;;;;;;;9.70;6.45;;;;;;;15.07;100.00;96075.88;5020125;28;20081;-59
2021/06/17 03:39:58;;;;;;;8.35;6.65;;;;;;;14.83;100.00;96077.81;4999536;28;20077;-56
2021/06/17 03:42:27;;;;;;;11.02;6.22;;;;;;;14.95;100.00;96080.81;5020093;28;20065;-55
2021/06/17 03:44:56;;;;;;;9.15;5.95;;;;;;;15.14;100.00;96074.16;5021598;28;20081;-54
2021/06/17 03:47:25;;;;;;;7.45;6.25;;;;;;;15.03;100.00;96074.59;5015595;28;20196;-54
2021/06/17 03:49:56;;;;;;;10.32;5.65;;;;;;;15.11;100.00;96083.31;5019267;28;20077;-55
2021/06/17 03:52:26;;;;;;;12.88;6.88;;;;;;;15.16;100.00;96075.63;5016133;28;20529;-57
2021/06/17 03:54:56;;;;;;;13.68;7.53;;;;;;;15.61;100.00;96078.25;5022111;28;20085;-50
2021/06/17 03:57:25;;;;;;;21.15;7.95;;;;;;;17.07;100.00;96071.78;5024066;28;20065;-55
2021/06/17 03:59:56;;;;;;;18.17;8.43;;;;;;;18.45;100.00;96073.38;5017043;28;20068;-55
2021/06/17 04:02:25;;;;;;;;;;;;;;;19.89;100.00;96064.59;5019778;28;20079;-55
2021/06/17 04:04:54;;;;;;;9.18;6.68;;;;;;;19.78;100.00;96077.81;5021238;28;19969;-56
2021/06/17 04:07:25;;;;;;;16.67;7.03;;;;;;;20.53;100.00;96076.22;5024190;28;20085;-55
2021/06/17 04:09:56;;;;;;;12.07;7.07;;;;;;;21.39;97.61;96082.75;5023943;28;20068;-53
2021/06/17 04:12:50;;;;;;;9.73;7.03;;;;;;;21.68;93.44;96091.09;5019622;28;21359;-60
2021/06/17 04:15:20;;;;;;;10.80;6.93;;;;;;;22.25;85.68;96087.13;5021748;28;20077;-57
2021/06/17 04:17:52;;;;;;;7.78;6.25;;;;;;;22.25;88.61;96099.75;5021533;28;20449;-55
2021/06/17 04:20:24;;;;;;;10.25;6.55;;;;;;;24.02;70.23;96098.09;5022585;28;20065;-57
2021/06/17 04:22:55;;;;;;;7.10;6.15;;;;;;;23.87;69.73;96103.97;5023879;28;20513;-55
2021/06/17 04:25:24;;;;;;;7.53;6.00;;;;;;;23.57;74.28;96106.78;5020312;28;20085;-52
2021/06/17 04:27:57;;;;;;;9.45;6.68;;;;;;;24.20;69.48;96107.91;5023654;28;20817;-58
2021/06/17 04:30:27;;;;;;;9.65;6.47;;;;;;;23.60;70.51;96107.13;5019672;28;20137;-51
2021/06/17 04:32:57;;;;;;;12.50;6.65;;;;;;;25.24;59.41;96113.03;5026172;28;20061;-57
2021/06/17 04:35:27;;;;;;;9.13;6.38;;;;;;;25.69;59.59;96112.09;5022955;28;20080;-59
2021/06/17 04:37:58;;;;;;;9.35;6.28;;;;;;;25.60;58.35;96108.16;5027860;28;20073;-58
2021/06/17 04:40:27;;;;;;;7.28;6.55;;;;;;;26.74;51.81;96110.97;5022769;28;20072;-57
2021/06/17 04:42:59;;;;;;;8.35;6.47;;;;;;;27.80;46.70;96108.59;5026105;28;20096;-59
2021/06/17 04:45:29;;;;;;;8.73;5.80;;;;;;;27.03;50.42;96116.09;5019047;28;20107;-58
2021/06/17 04:48:00;;;;;;;6.50;5.75;;;;;;;27.52;50.80;96118.69;5022146;28;20125;-58
2021/06/17 04:50:29;;;;;;;8.73;6.43;;;;;;;28.42;46.47;96118.66;5021462;28;20423;-57
2021/06/17 04:53:10;;;;;;;8.65;6.97;;;;;;;28.70;43.78;96125.53;5020644;28;20077;-52
2021/06/17 04:55:47;;;;;;;9.73;6.65;;;;;;;27.55;47.61;96122.75;5020606;28;20069;-57
2021/06/17 04:58:16;;;;;;;7.38;6.57;;;;;;;28.78;45.30;96125.00;5023445;28;20563;-59
2021/06/17 05:00:44;;;;;;;9.25;7.10;;;;;;;28.67;45.54;96122.53;5023037;28;20552;-57
2021/06/17 05:03:14;;;;;;;8.05;6.75;;;;;;;27.78;50.38;96114.28;5021066;28;20087;-55
2021/06/17 05:05:42;;;;;;;9.25;7.05;;;;;;;27.49;49.61;96126.50;5022097;28;20065;-58
2021/06/17 05:10:59;;;;;;;8.35;7.22;;;;;;;28.84;44.39;96123.13;5017551;28;20069;-58
2021/06/17 05:13:30;;;;;;;9.35;6.65;;;;;;;29.22;43.63;96129.97;5022516;28;20065;-57
2021/06/17 05:16:01;;;;;;;9.35;7.35;;;;;;;29.39;42.43;96137.00;5022883;28;20088;-58
2021/06/17 05:18:30;;;;;;;10.55;7.13;;;;;;;30.53;39.72;96139.25;5024833;28;20072;-58
2021/06/17 05:20:59;;;;;;;7.82;7.00;;;;;;;30.33;39.73;96143.69;5019144;28;20061;-56
2021/06/17 05:23:29;;;;;;;7.82;7.07;;;;;;;28.72;43.83;96136.91;5024208;28;20509;-58
2021/06/17 05:25:59;;;;;;;9.65;7.28;;;;;;;29.05;44.00;96134.84;5015363;28;20077;-55
2021/06/17 05:28:29;;;;;;;9.60;7.60;;;;;;;29.54;42.83;96137.00;5022926;28;20490;-58
2021/06/17 05:31:00;;;;;;;8.32;7.53;;;;;;;29.50;42.55;96130.50;5024973;28;20089;-57
2021/06/17 05:33:31;;;;;;;9.60;7.13;;;;;;;28.61;46.01;96135.25;5023112;28;20069;-59
2021/06/17 05:36:01;;;;;;;10.15;7.80;;;;;;;28.50;46.08;96137.13;5014268;28;20076;-59
2021/06/17 05:38:33;;;;;;;8.15;7.30;;;;;;;28.34;46.38;96138.13;5024427;28;20485;-59
2021/06/17 05:41:26;;;;;;;10.43;7.30;;;;;;;29.22;45.01;96131.88;5023440;28;20073;-54
2021/06/17 05:43:54;;;;;;;9.43;7.80;;;;;;;30.00;43.74;96137.75;5022658;28;20595;-57
2021/06/17 05:46:23;;;;;;;9.32;7.57;;;;;;;30.27;42.46;96133.91;5020378;28;20556;-58
2021/06/17 05:48:52;;;;;;;7.93;7.13;;;;;;;29.13;43.84;96144.34;5023796;28;20131;-61
2021/06/17 05:51:20;;;;;;;10.35;7.72;;;;;;;29.71;41.33;96144.91;5024974;28;21130;-55
2021/06/17 05:53:50;;;;;;;11.30;7.10;;;;;;;29.62;41.66;96143.81;5022122;28;20514;-59
2021/06/17 05:56:18;;;;;;;;;;;;;;;28.43;46.81;96138.47;5023179;28;20108;-60
2021/06/17 05:58:47;;;;;;;9.13;7.63;;;;;;;28.41;47.01;96143.34;5018475;28;19974;-58
2021/06/17 06:01:16;;;;;;;8.80;7.40;;;;;;;29.58;42.81;96144.34;5023566;28;20474;-57
2021/06/17 06:03:44;;;;;;;8.55;7.63;;;;;;;29.14;43.44;96151.41;5019776;28;20085;-58
2021/06/17 06:06:12;;;;;;;12.35;7.85;;;;;;;28.88;44.67;96140.50;5019225;28;20081;-58
2021/06/17 06:08:41;;;;;;;10.68;7.93;;;;;;;27.61;48.53;96152.34;5020893;28;20065;-59
2021/06/17 06:11:11;;;;;;;13.80;8.70;;;;;;;27.16;50.91;96152.81;5022737;28;20073;-59
2021/06/17 06:13:39;;;;;;;12.00;8.20;;;;;;;26.96;52.67;96150.69;5021339;28;20066;-57
2021/06/17 06:16:08;;;;;;;10.75;8.82;;;;;;;25.61;59.60;96147.63;5026569;28;20091;-59
2021/06/17 06:18:37;;;;;;;9.80;8.52;;;;;;;25.89;59.00;96144.00;5020732;28;20453;-58
2021/06/17 06:21:06;;;;;;;11.48;8.40;;;;;;;25.43;62.61;96152.22;5022659;28;20081;-56
2021/06/17 06:23:34;;;;;;;9.27;7.93;;;;;;;25.90;60.26;96148.34;5018002;28;20095;-55
2021/06/17 06:26:03;;;;;;;11.00;8.20;;;;;;;25.44;62.36;96148.44;5024155;28;20079;-57
2021/06/17 06:28:33;;;;;;;9.77;7.55;;;;;;;24.77;63.43;96151.06;5021975;28;20062;-59
2021/06/17 06:31:01;;;;;;;;;;;;;;;24.83;62.99;96144.69;5026458;28;20581;-59
2021/06/17 06:33:30;;;;;;;11.82;7.32;;;;;;;25.15;63.53;96154.97;5023292;28;19964;-58
2021/06/17 06:35:58;;;;;;;10.00;6.70;;;;;;;24.97;63.46;96153.31;5022969;28;20065;-58
2021/06/17 06:38:27;;;;;;;8.25;7.18;;;;;;;25.25;61.27;96149.75;5022777;28;20057;-57
2021/06/17 06:40:55;;;;;;;12.88;7.72;;;;;;;24.38;68.02;96145.44;5017922;28;20463;-57
2021/06/17 06:43:23;;;;;;;8.52;7.40;;;;;;;25.04;64.13;96156.66;5022282;28;20096;-57
2021/06/17 06:45:53;;;;;;;9.13;7.60;;;;;;;24.81;66.72;96150.34;5025311;28;20085;-57
2021/06/17 06:48:22;;;;;;;11.57;7.15;;;;;;;25.49;61.70;96158.50;5023406;28;20076;-56
2021/06/17 06:50:50;;;;;;;10.52;7.22;;;;;;;25.28;66.06;96157.38;5020231;28;20061;-61
2021/06/17 06:53:19;;;;;;;8.60;7.22;;;;;;;25.49;60.92;96162.00;5021549;28;20560;-55
2021/06/17 06:55:47;;;;;;;9.82;7.40;;;;;;;25.68;60.78;96168.00;5019525;28;20564;-59
2021/06/17 06:58:15;;;;;;;11.43;7.30;;;;;;;25.67;60.87;96163.66;5019797;28;20096;-57
2021/06/17 07:00:44;;;;;;;9.15;7.32;;;;;;;25.77;60.64;96171.91;5021561;28;20533;-58
2021/06/17 07:03:14;;;;;;;10.07;6.97;;;;;;;25.66;59.26;96164.69;5023106;28;20076;-57
2021/06/17 07:05:43;;;;;;;9.75;7.18;;;;;;;25.19;61.74;96166.91;5017582;28;20068;-59
2021/06/17 07:08:11;;;;;;;8.23;6.60;;;;;;;25.60;62.00;96172.97;5020408;28;20061;-58
2021/06/17 07:10:43;;;;;;;10.85;6.93;;;;;;;25.49;62.12;96169.31;5018828;28;20455;-55
2021/06/17 07:13:13;;;;;;;9.43;6.80;;;;;;;26.33;56.98;96171.06;5022404;28;20112;-61
2021/06/17 07:15:42;;;;;;;;;;;;;;;25.73;61.64;96169.94;5024505;28;20108;-54
2021/06/17 07:18:10;;;;;;;9.48;6.93;;;;;;;25.94;62.75;96168.38;5022042;28;19948;-59
2021/06/17 07:20:40;;;;;;;9.23;7.35;;;;;;;25.95;62.90;96167.34;5019155;28;20073;-58
2021/06/17 07:23:08;;;;;;;10.45;6.90;;;;;;;25.88;60.12;96170.22;5020824;28;20092;-59
2021/06/17 07:25:37;;;;;;;8.15;7.35;;;;;;;26.24;61.61;96170.69;5019375;28;20072;-58
2021/06/17 07:28:06;;;;;;;8.05;7.13;;;;;;;26.64;58.15;96169.56;5020816;28;20081;-59
2021/06/17 07:30:34;;;;;;;10.10;7.00;;;;;;;26.66;58.55;96170.94;5021171;28;21169;-59
2021/06/17 07:33:03;;;;;;;10.48;7.05;;;;;;;26.46;61.52;96181.47;5018874;28;20072;-58
2021/06/17 07:35:32;;;;;;;7.82;6.60;;;;;;;26.64;59.34;96170.38;5023803;28;20077;-56
2021/06/17 07:38:02;;;;;;;10.65;6.57;;;;;;;26.65;57.68;96173.91;5022903;28;20069;-61
2021/06/17 07:40:30;;;;;;;12.27;7.07;;;;;;;26.75;60.20;96176.72;5027142;28;20081;-59
2021/06/17 07:42:59;;;;;;;9.80;6.18;;;;;;;26.99;55.31;96185.34;5022922;28;20092;-59
2021/06/17 07:45:30;;;;;;;8.27;6.00;;;;;;;26.79;57.60;96191.38;5022105;28;20109;-57
2021/06/17 07:48:16;;;;;;;9.80;6.65;;;;;;;27.01;56.33;96187.78;5023411;28;20509;-58
2021/06/17 07:50:44;;;;;;;9.23;6.07;;;;;;;27.44;53.47;96187.69;5023318;28;20070;-58
2021/06/17 07:53:14;;;;;;;7.43;5.97;;;;;;;27.26;55.50;96184.56;5020526;28;20065;-57
2021/06/17 07:55:43;;;;;;;8.57;6.32;;;;;;;27.48;52.71;96189.88;5025723;28;20065;-58
2021/06/17 07:58:11;;;;;;;5.97;5.18;;;;;;;27.75;50.24;96189.81;5024133;28;20085;-58
2021/06/17 08:00:40;;;;;;;7.85;5.70;;;;;;;27.79;50.08;96191.78;5024771;28;20599;-52
2021/06/17 08:03:09;;;;;;;7.07;6.03;;;;;;;27.80;51.78;96190.69;5024725;28;20551;-58
2021/06/17 08:05:38;;;;;;;9.98;7.38;;;;;;;27.71;53.89;96188.72;5020214;28;20077;-58
2021/06/17 08:08:26;;;;;;;7.93;6.75;;;;;;;27.90;52.51;96192.66;5022117;28;20071;-59
2021/06/17 08:10:54;;;;;;;8.77;7.15;;;;;;;27.63;52.81;96190.84;5023625;28;20073;-60
2021/06/17 08:13:23;;;;;;;9.40;6.70;;;;;;;27.62;55.39;96189.19;5023705;28;20085;-58
2021/06/17 08:15:52;;;;;;;9.68;7.18;;;;;;;27.89;52.86;96189.13;5030063;28;20081;-58
2021/06/17 08:18:20;;;;;;;7.55;6.75;;;;;;;28.23;50.94;96177.94;5021507;28;20065;-58
2021/06/17 08:20:49;;;;;;;8.43;6.00;;;;;;;28.37;51.11;96184.53;5026387;28;20107;-58
2021/06/17 08:23:19;;;;;;;13.38;6.32;;;;;;;28.03;52.39;96183.25;5023332;28;20077;-59
2021/06/17 08:25:49;;;;;;;6.78;5.95;;;;;;;28.19;50.12;96179.56;5021301;28;20072;-60
2021/06/17 08:28:17;;;;;;;8.73;5.70;;;;;;;28.06;52.74;96174.59;5019382;28;20100;-58
2021/06/17 08:30:46;;;;;;;7.57;5.30;;;;;;;28.06;50.67;96174.59;5025967;28;20084;-53
2021/06/17 08:33:15;;;;;;;6.75;5.60;;;;;;;28.63;47.52;96169.19;5020976;28;20100;-59
2021/06/17 08:35:44;;;;;;;10.13;5.80;;;;;;;28.61;48.39;96171.34;5023216;28;20076;-59
2021/06/17 08:38:12;;;;;;;10.18;5.88;;;;;;;28.85;48.63;96177.13;5020519;28;20077;-59
2021/06/17 08:40:41;;;;;;;8.43;6.70;;;;;;;28.56;50.31;96165.91;5023282;28;20065;-54
2021/06/17 08:43:12;;;;;;;10.25;7.15;;;;;;;28.34;49.26;96176.09;5018764;28;20080;-59
2021/06/17 08:45:40;;;;;;;;;;;;;;;28.69;52.92;96174.63;5026148;28;20080;-59
2021/06/17 08:48:09;;;;;;;9.90;6.25;;;;;;;29.00;50.00;96179.06;5024396;28;19959;-57
2021/06/17 08:50:38;;;;;;;11.52;6.05;;;;;;;29.23;47.91;96182.38;5021533;28;20500;-55
2021/06/17 08:53:06;;;;;;;10.65;6.60;;;;;;;29.15;48.74;96178.31;5022516;28;20077;-59
2021/06/17 08:55:37;;;;;;;10.95;6.45;;;;;;;29.17;46.43;96181.53;5023519;28;20073;-56
2021/06/17 08:58:05;;;;;;;10.43;6.80;;;;;;;28.91;47.78;96182.56;5028557;28;20085;-53
2021/06/17 09:00:38;;;;;;;9.70;6.05;;;;;;;28.81;47.01;96183.38;5018012;28;20127;-56
2021/06/17 09:03:08;;;;;;;8.82;6.10;;;;;;;28.91;48.98;96182.56;5026403;28;20457;-58
2021/06/17 09:05:41;;;;;;;9.65;5.90;;;;;;;29.28;47.01;96175.03;5023193;28;20082;-54
2021/06/17 09:08:11;;;;;;;9.90;6.60;;;;;;;29.50;44.75;96179.41;5026684;28;20598;-55
2021/06/17 09:10:41;;;;;;;8.73;5.72;;;;;;;29.34;46.92;96178.56;5016489;28;20068;-57
2021/06/17 09:13:52;;;;;;;14.23;6.07;;;;;;;29.10;45.77;96170.94;5023085;28;20131;-56
2021/06/17 09:16:28;;;;;;;11.07;5.93;;;;;;;29.67;43.46;96174.53;5023886;28;20099;-58
2021/06/17 09:18:56;;;;;;;10.68;6.10;;;;;;;29.86;43.00;96172.06;5026874;28;20081;-59
2021/06/17 09:21:25;;;;;;;10.48;6.00;;;;;;;29.64;47.23;96172.38;5019907;28;20091;-56
2021/06/17 09:23:53;;;;;;;13.30;6.10;;;;;;;29.83;45.10;96178.03;5023866;28;20148;-56
2021/06/17 09:26:23;;;;;;;11.13;6.20;;;;;;;29.94;43.03;96182.38;5022067;28;20084;-58
2021/06/17 09:28:55;;;;;;;12.50;6.40;;;;;;;30.30;42.04;96176.88;5024874;28;20084;-55
2021/06/17 09:31:26;;;;;;;10.93;5.82;;;;;;;30.16;42.94;96170.38;5019999;28;20069;-59
2021/06/17 09:33:56;;;;;;;7.82;5.43;;;;;;;30.00;42.58;96178.53;5020686;28;20085;-57
2021/06/17 09:36:25;;;;;;;8.97;5.50;;;;;;;30.51;41.31;96161.28;5020356;28;20057;-58
2021/06/17 09:38:55;;;;;;;10.55;5.78;;;;;;;30.32;43.61;96171.97;5022740;28;20096;-57
2021/06/17 09:41:37;;;;;;;9.35;5.75;;;;;;;30.37;43.02;96169.22;5023516;28;20081;-56
2021/06/17 09:44:07;;;;;;;8.75;5.95;;;;;;;30.03;43.50;96169.03;5020252;28;20064;-57
2021/06/17 09:46:37;;;;;;;9.35;5.70;;;;;;;30.37;43.27;96173.88;5018579;28;20061;-58
2021/06/17 09:49:07;;;;;;;7.22;5.60;;;;;;;30.02;43.28;96181.00;5025778;28;20485;-56
2021/06/17 09:51:41;;;;;;;12.45;5.75;;;;;;;30.65;43.40;96178.63;5015462;28;20390;-58
2021/06/17 09:54:21;;;;;;;8.90;5.05;;;;;;;30.57;40.69;96179.22;5025843;28;20107;-56
2021/06/17 09:56:51;;;;;;;11.85;5.88;;;;;;;30.59;41.15;96185.19;5021354;28;20072;-57
2021/06/17 09:59:39;;;;;;;7.68;5.40;;;;;;;30.74;39.95;96192.50;5023134;28;20077;-56
2021/06/17 10:02:10;;;;;;;8.80;5.70;;;;;;;30.83;40.65;96185.38;5016887;28;20072;-58
2021/06/17 10:04:39;;;;;;;7.45;5.40;;;;;;;30.68;41.98;96185.44;5021871;28;20089;-58
2021/06/17 10:07:07;;;;;;;8.35;5.30;;;;;;;30.71;39.79;96191.13;5026616;28;20545;-57
2021/06/17 10:09:36;;;;;;;9.20;5.57;;;;;;;30.59;40.91;96189.81;5018818;28;20065;-58
2021/06/17 10:12:06;;;;;;;9.45;5.40;;;;;;;30.59;39.10;96185.19;5021388;28;20057;-58
2021/06/17 10:14:34;;;;;;;;;;;;;;;30.67;39.88;96189.25;5019922;28;20069;-59
2021/06/17 10:17:04;;;;;;;9.27;5.35;;;;;;;30.57;40.19;96189.31;5024805;28;19940;-56
2021/06/17 10:19:34;;;;;;;;;;;;;;;30.42;39.91;96198.31;4999605;28;20080;-57
2021/06/17 10:22:03;;;;;;;6.82;4.78;;;;;;;30.64;39.80;96195.25;5009468;28;19955;-49
2021/06/17 10:24:56;;;;;;;7.93;4.85;;;;;;;30.74;38.20;96187.84;5023341;28;21404;-59
2021/06/17 10:27:30;;;;;;;11.50;5.32;;;;;;;30.38;39.50;96180.91;5018374;28;20064;-58
2021/06/17 10:29:59;;;;;;;8.43;5.22;;;;;;;30.68;39.70;96188.16;5019542;28;20144;-58
2021/06/17 10:32:34;;;;;;;8.68;5.32;;;;;;;30.77;39.21;96186.53;5007514;28;20061;-59
2021/06/17 10:35:04;;;;;;;7.35;5.13;;;;;;;31.49;38.36;96186.06;5019654;28;20492;-58
2021/06/17 10:37:34;;;;;;;6.88;5.00;;;;;;;31.39;37.24;96190.50;5022844;28;20521;-55
2021/06/17 10:40:16;;;;;;;8.32;4.97;;;;;;;31.72;38.36;96190.78;5022867;28;20081;-58
2021/06/17 10:42:46;;;;;;;7.85;4.60;;;;;;;31.44;36.27;96190.47;5022497;28;20454;-56
2021/06/17 10:45:17;;;;;;;7.30;4.88;;;;;;;31.30;37.35;96192.16;5005429;28;20033;-55
2021/06/17 10:47:52;;;;;;;10.35;5.00;;;;;;;31.16;37.47;96185.75;5024307;28;20069;-58
2021/06/17 10:50:24;;;;;;;7.18;4.97;;;;;;;31.23;37.77;96182.69;5019445;28;20145;-57
2021/06/17 10:52:54;;;;;;;8.85;4.65;;;;;;;30.91;38.43;96176.63;5024425;28;20073;-57
2021/06/17 10:55:24;;;;;;;7.63;4.65;;;;;;;31.50;36.57;96171.34;5022622;28;20069;-60
2021/06/17 10:57:53;;;;;;;6.78;4.60;;;;;;;31.56;38.62;96173.75;5005425;28;20509;-57
2021/06/17 11:00:44;;;;;;;7.18;4.28;;;;;;;31.68;38.37;96167.91;5021086;28;20065;-59
2021/06/17 11:03:43;;;;;;;6.05;4.38;;;;;;;31.75;35.20;96171.13;5023323;28;20500;-58
2021/06/17 11:06:13;;;;;;;3.95;3.33;;;;;;;31.74;35.00;96172.22;4942297;28;20211;-58
2021/06/17 11:09:43;;;;;;;3.50;3.00;;;;;;;31.56;32.09;96173.75;5019273;28;20065;-57
2021/06/17 11:12:43;;;;;;;4.10;3.45;;;;;;;31.98;31.65;96176.94;5026915;28;20682;-57
2021/06/17 11:15:12;;;;;;;4.25;3.10;;;;;;;31.84;30.42;96177.59;5025763;28;20080;-58
2021/06/17 11:17:45;;;;;;;3.72;3.15;;;;;;;31.56;30.74;96175.66;5026821;28;20072;-57
2021/06/17 11:20:18;;;;;;;4.57;2.92;;;;;;;31.99;30.53;96168.47;5025829;28;20571;-57
2021/06/17 11:22:49;;;;;;;5.80;3.10;;;;;;;31.96;29.74;96158.13;5025428;28;20072;-59
2021/06/17 11:25:20;;;;;;;4.57;3.00;;;;;;;32.24;30.39;96142.00;5007513;28;20513;-58
2021/06/17 11:27:56;;;;;;;4.07;3.00;;;;;;;32.19;30.53;96140.16;5027922;28;20061;-60
2021/06/17 11:31:02;;;;;;;4.63;2.80;;;;;;;32.25;28.89;96133.53;5025248;28;20091;-59
2021/06/17 11:33:51;;;;;;;4.88;2.80;;;;;;;32.55;28.28;96131.53;5024083;28;20069;-59
2021/06/17 11:36:20;;;;;;;4.63;2.92;;;;;;;32.34;31.87;96133.69;5018554;28;20073;-59
2021/06/17 11:38:52;;;;;;;2.95;2.55;;;;;;;32.31;30.04;96128.81;5025777;28;20096;-59
2021/06/17 11:41:41;;;;;;;3.65;2.80;;;;;;;32.31;29.06;96132.38;5025688;28;20057;-57
2021/06/17 11:44:09;;;;;;;3.88;3.20;;;;;;;32.48;30.31;96136.53;5028541;28;20072;-59
2021/06/17 11:46:41;;;;;;;4.43;2.97;;;;;;;32.74;30.59;96131.56;5025531;28;20077;-61
2021/06/17 11:49:33;;;;;;;4.05;3.00;;;;;;;32.13;28.26;96117.56;5025893;28;20490;-58
2021/06/17 11:52:02;;;;;;;5.65;2.63;;;;;;;32.43;28.90;96125.72;5026858;28;20647;-59